Overview Statistics Trail Chart Weather Telemetry Raw packets
 

This is the latest recevied weather packets stored in our database for station/object SP2CDN-10. If no packets are shown the sender has not sent any weather packets the latest 10 day(s).

<< 7 8 9 10 11 12 13 >>
Time Temp. Humidity Pressure Rain* Wind** Luminosity Snow
1788209135 17.78° C 86% 1011.2 hPa - - - -
1788206853 18.33° C 77% 1011.2 hPa - - - -
1788204571 19.44° C 73% 1011 hPa - - - -
1788202290 19.44° C 72% 1011.1 hPa - - - -
1788200008 20° C 68% 1010.8 hPa - - - -
1788197726 21.67° C 67% 1010.4 hPa - - - -
1788195445 22.22° C 67% 1010.4 hPa - - - -
1788193165 22.78° C 67% 1010.2 hPa - - - -
1788190886 23.89° C 61% 1010.3 hPa - - - -
1788188605 27.22° C 48% 1010.1 hPa - - - -
1788186318 26.11° C 53% 1010.2 hPa - - - -
1788184036 25.56° C 58% 1010.5 hPa - - - -
1788181755 23.89° C 60% 1010.8 hPa - - - -
1788179473 24.44° C 56% 1011.1 hPa - - - -
1788177191 25° C 52% 1011.1 hPa - - - -
1788174910 25° C 53% 1011.1 hPa - - - -
1788172628 26.67° C 46% 1011.3 hPa - - - -
1788170351 26.11° C 48% 1011.3 hPa - - - -
1788168064 26.11° C 49% 1011.4 hPa - - - -
1788165782 26.67° C 54% 1011.6 hPa - - - -
1788163500 25° C 58% 1011.7 hPa - - - -
1788161219 21.11° C 70% 1011.8 hPa - - - -
1788158937 20° C 79% 1011.8 hPa - - - -
1788156656 17.78° C 90% 1011.7 hPa - - - -
1788154374 17.22° C 100% 1011.8 hPa - - - -

* Rain since midnight (hover to see other rain measurements)
** Current wind speed in m/s (hover to see current wind gust speed)